sensor_id;sensor_type;location;lat;lon;timestamp;P1;durP1;ratioP1;P2;durP2;ratioP2
36433;SDS011;31691;51.972;5.672;2023-09-12T00:04:48;96.43;;;68.45;;
36433;SDS011;31691;51.972;5.672;2023-09-12T00:09:52;93.22;;;68.95;;
36433;SDS011;31691;51.972;5.672;2023-09-12T00:14:54;81.75;;;62.10;;
36433;SDS011;31691;51.972;5.672;2023-09-12T00:19:57;90.47;;;64.65;;
36433;SDS011;31691;51.972;5.672;2023-09-12T00:24:59;102.45;;;66.28;;
36433;SDS011;31691;51.972;5.672;2023-09-12T00:30:01;86.47;;;64.30;;
36433;SDS011;31691;51.972;5.672;2023-09-12T00:35:04;76.70;;;60.72;;
36433;SDS011;31691;51.972;5.672;2023-09-12T00:40:14;91.20;;;65.50;;
36433;SDS011;31691;51.972;5.672;2023-09-12T00:45:16;83.40;;;62.72;;
36433;SDS011;31691;51.972;5.672;2023-09-12T00:50:19;96.40;;;67.38;;
36433;SDS011;31691;51.972;5.672;2023-09-12T00:55:24;109.25;;;70.43;;
36433;SDS011;31691;51.972;5.672;2023-09-12T01:00:26;103.97;;;68.20;;
36433;SDS011;31691;51.972;5.672;2023-09-12T01:05:29;105.43;;;71.90;;
36433;SDS011;31691;51.972;5.672;2023-09-12T01:10:31;79.32;;;60.20;;
36433;SDS011;31691;51.972;5.672;2023-09-12T01:15:34;107.53;;;72.03;;
36433;SDS011;31691;51.972;5.672;2023-09-12T01:20:36;91.47;;;64.13;;
36433;SDS011;31691;51.972;5.672;2023-09-12T01:25:47;85.82;;;62.00;;
36433;SDS011;31691;51.972;5.672;2023-09-12T01:31:16;103.55;;;69.57;;
36433;SDS011;31691;51.972;5.672;2023-09-12T01:36:21;97.80;;;64.97;;
36433;SDS011;31691;51.972;5.672;2023-09-12T01:41:23;115.03;;;73.75;;
36433;SDS011;31691;51.972;5.672;2023-09-12T01:46:25;103.57;;;68.75;;
36433;SDS011;31691;51.972;5.672;2023-09-12T01:51:29;99.80;;;65.63;;
36433;SDS011;31691;51.972;5.672;2023-09-12T01:56:32;99.65;;;65.43;;
36433;SDS011;31691;51.972;5.672;2023-09-12T02:01:34;111.00;;;69.97;;
36433;SDS011;31691;51.972;5.672;2023-09-12T02:06:37;109.30;;;70.68;;
36433;SDS011;31691;51.972;5.672;2023-09-12T02:11:39;115.88;;;70.35;;
36433;SDS011;31691;51.972;5.672;2023-09-12T02:16:42;123.78;;;73.05;;
36433;SDS011;31691;51.972;5.672;2023-09-12T02:21:45;116.65;;;71.47;;
36433;SDS011;31691;51.972;5.672;2023-09-12T02:26:47;102.55;;;65.13;;
36433;SDS011;31691;51.972;5.672;2023-09-12T02:31:50;111.63;;;69.53;;
36433;SDS011;31691;51.972;5.672;2023-09-12T02:36:52;130.20;;;72.63;;
36433;SDS011;31691;51.972;5.672;2023-09-12T02:41:54;108.65;;;69.13;;
36433;SDS011;31691;51.972;5.672;2023-09-12T02:46:57;98.57;;;65.88;;
36433;SDS011;31691;51.972;5.672;2023-09-12T02:51:59;86.47;;;60.78;;
36433;SDS011;31691;51.972;5.672;2023-09-12T02:57:01;73.97;;;56.92;;
36433;SDS011;31691;51.972;5.672;2023-09-12T03:02:04;70.15;;;54.42;;
36433;SDS011;31691;51.972;5.672;2023-09-12T03:07:06;67.50;;;55.05;;
36433;SDS011;31691;51.972;5.672;2023-09-12T03:12:09;71.70;;;55.53;;
36433;SDS011;31691;51.972;5.672;2023-09-12T03:17:11;78.07;;;57.40;;
36433;SDS011;31691;51.972;5.672;2023-09-12T03:22:13;70.22;;;54.53;;
36433;SDS011;31691;51.972;5.672;2023-09-12T03:27:16;77.72;;;56.95;;
36433;SDS011;31691;51.972;5.672;2023-09-12T03:32:18;72.03;;;55.75;;
36433;SDS011;31691;51.972;5.672;2023-09-12T03:37:20;66.05;;;53.03;;
36433;SDS011;31691;51.972;5.672;2023-09-12T03:42:23;57.70;;;51.40;;
36433;SDS011;31691;51.972;5.672;2023-09-12T03:47:38;53.40;;;47.63;;
36433;SDS011;31691;51.972;5.672;2023-09-12T03:52:41;66.93;;;51.97;;
36433;SDS011;31691;51.972;5.672;2023-09-12T03:57:43;53.13;;;46.80;;
36433;SDS011;31691;51.972;5.672;2023-09-12T04:02:45;59.58;;;49.80;;
36433;SDS011;31691;51.972;5.672;2023-09-12T04:07:47;65.53;;;53.58;;
36433;SDS011;31691;51.972;5.672;2023-09-12T04:12:50;67.40;;;54.03;;
36433;SDS011;31691;51.972;5.672;2023-09-12T04:17:52;51.03;;;44.65;;
36433;SDS011;31691;51.972;5.672;2023-09-12T04:22:55;67.38;;;52.88;;
36433;SDS011;31691;51.972;5.672;2023-09-12T04:27:57;64.22;;;51.15;;
36433;SDS011;31691;51.972;5.672;2023-09-12T04:32:59;63.50;;;51.13;;
36433;SDS011;31691;51.972;5.672;2023-09-12T04:38:02;70.25;;;52.25;;
36433;SDS011;31691;51.972;5.672;2023-09-12T04:43:04;78.75;;;54.22;;
36433;SDS011;31691;51.972;5.672;2023-09-12T04:48:07;61.10;;;50.17;;
36433;SDS011;31691;51.972;5.672;2023-09-12T04:53:09;71.45;;;52.85;;
36433;SDS011;31691;51.972;5.672;2023-09-12T04:58:12;71.32;;;52.33;;
36433;SDS011;31691;51.972;5.672;2023-09-12T05:03:14;68.38;;;49.75;;
36433;SDS011;31691;51.972;5.672;2023-09-12T05:08:16;82.60;;;56.45;;
36433;SDS011;31691;51.972;5.672;2023-09-12T05:13:20;84.93;;;58.00;;
36433;SDS011;31691;51.972;5.672;2023-09-12T05:18:22;81.05;;;56.00;;
36433;SDS011;31691;51.972;5.672;2023-09-12T05:23:25;85.25;;;59.00;;
36433;SDS011;31691;51.972;5.672;2023-09-12T05:28:27;121.63;;;71.85;;
36433;SDS011;31691;51.972;5.672;2023-09-12T05:33:29;131.98;;;71.85;;
36433;SDS011;31691;51.972;5.672;2023-09-12T05:38:34;112.15;;;66.10;;
36433;SDS011;31691;51.972;5.672;2023-09-12T05:43:36;85.90;;;59.22;;
36433;SDS011;31691;51.972;5.672;2023-09-12T05:48:39;118.10;;;69.93;;
36433;SDS011;31691;51.972;5.672;2023-09-12T05:53:41;78.18;;;57.20;;
36433;SDS011;31691;51.972;5.672;2023-09-12T05:58:43;106.75;;;67.00;;
36433;SDS011;31691;51.972;5.672;2023-09-12T06:03:46;77.70;;;53.90;;
36433;SDS011;31691;51.972;5.672;2023-09-12T06:08:48;105.40;;;66.90;;
36433;SDS011;31691;51.972;5.672;2023-09-12T06:13:50;114.68;;;67.88;;
36433;SDS011;31691;51.972;5.672;2023-09-12T06:18:52;96.75;;;62.38;;
36433;SDS011;31691;51.972;5.672;2023-09-12T06:24:11;105.55;;;67.43;;
36433;SDS011;31691;51.972;5.672;2023-09-12T06:29:15;110.63;;;70.70;;
36433;SDS011;31691;51.972;5.672;2023-09-12T06:34:17;87.95;;;63.15;;
36433;SDS011;31691;51.972;5.672;2023-09-12T06:39:19;94.03;;;65.38;;
36433;SDS011;31691;51.972;5.672;2023-09-12T06:44:22;91.03;;;63.65;;
36433;SDS011;31691;51.972;5.672;2023-09-12T06:49:24;97.22;;;67.28;;
36433;SDS011;31691;51.972;5.672;2023-09-12T06:54:26;105.03;;;66.78;;
36433;SDS011;31691;51.972;5.672;2023-09-12T06:59:29;99.35;;;66.03;;
36433;SDS011;31691;51.972;5.672;2023-09-12T07:04:31;94.43;;;62.08;;
36433;SDS011;31691;51.972;5.672;2023-09-12T07:09:33;96.72;;;67.75;;
36433;SDS011;31691;51.972;5.672;2023-09-12T07:14:36;99.93;;;70.85;;
36433;SDS011;31691;51.972;5.672;2023-09-12T07:19:39;103.15;;;69.32;;
36433;SDS011;31691;51.972;5.672;2023-09-12T07:24:44;105.30;;;70.00;;
36433;SDS011;31691;51.972;5.672;2023-09-12T07:29:47;95.05;;;65.90;;
36433;SDS011;31691;51.972;5.672;2023-09-12T07:34:49;90.22;;;65.22;;
36433;SDS011;31691;51.972;5.672;2023-09-12T07:39:51;88.60;;;66.00;;
36433;SDS011;31691;51.972;5.672;2023-09-12T07:44:53;86.63;;;62.00;;
36433;SDS011;31691;51.972;5.672;2023-09-12T07:49:56;82.38;;;61.90;;
36433;SDS011;31691;51.972;5.672;2023-09-12T07:54:59;80.97;;;61.05;;
36433;SDS011;31691;51.972;5.672;2023-09-12T08:00:03;82.20;;;58.22;;
36433;SDS011;31691;51.972;5.672;2023-09-12T08:05:10;93.60;;;69.22;;
36433;SDS011;31691;51.972;5.672;2023-09-12T08:10:13;101.57;;;73.90;;
36433;SDS011;31691;51.972;5.672;2023-09-12T08:15:15;87.28;;;65.95;;
36433;SDS011;31691;51.972;5.672;2023-09-12T08:20:18;76.03;;;59.65;;
36433;SDS011;31691;51.972;5.672;2023-09-12T08:25:21;75.10;;;55.17;;
36433;SDS011;31691;51.972;5.672;2023-09-12T08:30:23;73.97;;;54.38;;
36433;SDS011;31691;51.972;5.672;2023-09-12T08:35:27;69.63;;;53.97;;
36433;SDS011;31691;51.972;5.672;2023-09-12T08:40:29;68.38;;;51.60;;
36433;SDS011;31691;51.972;5.672;2023-09-12T08:45:32;63.38;;;49.97;;
36433;SDS011;31691;51.972;5.672;2023-09-12T08:50:34;59.33;;;48.25;;
36433;SDS011;31691;51.972;5.672;2023-09-12T08:55:36;60.08;;;47.72;;
36433;SDS011;31691;51.972;5.672;2023-09-12T09:00:39;52.47;;;41.13;;
36433;SDS011;31691;51.972;5.672;2023-09-12T09:05:43;45.95;;;39.15;;
36433;SDS011;31691;51.972;5.672;2023-09-12T09:10:55;42.78;;;36.95;;
36433;SDS011;31691;51.972;5.672;2023-09-12T09:16:14;45.70;;;37.28;;
36433;SDS011;31691;51.972;5.672;2023-09-12T09:21:19;42.78;;;36.90;;
36433;SDS011;31691;51.972;5.672;2023-09-12T09:26:28;38.60;;;34.38;;
36433;SDS011;31691;51.972;5.672;2023-09-12T09:32:03;39.63;;;33.83;;
36433;SDS011;31691;51.972;5.672;2023-09-12T09:37:19;40.28;;;33.15;;
36433;SDS011;31691;51.972;5.672;2023-09-12T09:42:21;36.65;;;31.52;;
36433;SDS011;31691;51.972;5.672;2023-09-12T09:47:23;35.03;;;30.20;;
36433;SDS011;31691;51.972;5.672;2023-09-12T09:52:26;36.85;;;29.67;;
36433;SDS011;31691;51.972;5.672;2023-09-12T09:57:29;34.53;;;29.92;;
36433;SDS011;31691;51.972;5.672;2023-09-12T10:02:32;32.00;;;28.50;;
36433;SDS011;31691;51.972;5.672;2023-09-12T10:07:34;37.05;;;31.15;;
36433;SDS011;31691;51.972;5.672;2023-09-12T10:12:42;34.63;;;30.05;;
36433;SDS011;31691;51.972;5.672;2023-09-12T10:23:02;39.83;;;32.53;;
36433;SDS011;31691;51.972;5.672;2023-09-12T10:28:10;44.00;;;34.35;;
36433;SDS011;31691;51.972;5.672;2023-09-12T10:33:13;45.78;;;34.67;;
36433;SDS011;31691;51.972;5.672;2023-09-12T10:38:17;43.10;;;35.85;;
36433;SDS011;31691;51.972;5.672;2023-09-12T10:43:22;44.92;;;38.00;;
36433;SDS011;31691;51.972;5.672;2023-09-12T10:48:26;39.95;;;34.10;;
36433;SDS011;31691;51.972;5.672;2023-09-12T10:53:29;34.60;;;31.08;;
36433;SDS011;31691;51.972;5.672;2023-09-12T10:58:32;40.67;;;34.83;;
36433;SDS011;31691;51.972;5.672;2023-09-12T11:08:44;38.58;;;34.53;;
36433;SDS011;31691;51.972;5.672;2023-09-12T11:14:27;39.40;;;35.15;;
36433;SDS011;31691;51.972;5.672;2023-09-12T11:19:29;38.72;;;34.58;;
36433;SDS011;31691;51.972;5.672;2023-09-12T11:24:46;45.78;;;39.60;;
36433;SDS011;31691;51.972;5.672;2023-09-12T11:29:49;44.40;;;38.65;;
36433;SDS011;31691;51.972;5.672;2023-09-12T11:34:51;40.05;;;35.83;;
36433;SDS011;31691;51.972;5.672;2023-09-12T11:39:54;42.92;;;38.15;;
36433;SDS011;31691;51.972;5.672;2023-09-12T11:44:56;40.90;;;36.75;;
36433;SDS011;31691;51.972;5.672;2023-09-12T11:49:59;38.78;;;34.55;;
36433;SDS011;31691;51.972;5.672;2023-09-12T11:55:01;38.22;;;33.65;;
36433;SDS011;31691;51.972;5.672;2023-09-12T12:00:04;39.40;;;32.92;;
36433;SDS011;31691;51.972;5.672;2023-09-12T12:05:10;39.55;;;34.97;;
36433;SDS011;31691;51.972;5.672;2023-09-12T12:10:13;35.63;;;31.23;;
36433;SDS011;31691;51.972;5.672;2023-09-12T12:15:15;36.35;;;32.45;;
36433;SDS011;31691;51.972;5.672;2023-09-12T12:20:17;37.35;;;33.35;;
36433;SDS011;31691;51.972;5.672;2023-09-12T12:25:20;39.47;;;31.42;;
36433;SDS011;31691;51.972;5.672;2023-09-12T12:30:23;31.95;;;28.33;;
36433;SDS011;31691;51.972;5.672;2023-09-12T12:35:26;32.95;;;27.98;;
36433;SDS011;31691;51.972;5.672;2023-09-12T12:40:48;32.72;;;29.42;;
36433;SDS011;31691;51.972;5.672;2023-09-12T12:45:52;33.22;;;28.98;;
36433;SDS011;31691;51.972;5.672;2023-09-12T12:50:56;31.73;;;28.42;;
36433;SDS011;31691;51.972;5.672;2023-09-12T12:55:59;32.38;;;28.20;;
36433;SDS011;31691;51.972;5.672;2023-09-12T13:01:02;29.42;;;26.30;;
36433;SDS011;31691;51.972;5.672;2023-09-12T13:06:05;26.67;;;23.95;;
36433;SDS011;31691;51.972;5.672;2023-09-12T13:11:09;28.45;;;25.67;;
36433;SDS011;31691;51.972;5.672;2023-09-12T13:16:14;26.05;;;23.23;;
36433;SDS011;31691;51.972;5.672;2023-09-12T13:21:17;25.42;;;21.77;;
36433;SDS011;31691;51.972;5.672;2023-09-12T13:26:19;20.73;;;18.52;;
36433;SDS011;31691;51.972;5.672;2023-09-12T13:31:21;21.45;;;19.35;;
36433;SDS011;31691;51.972;5.672;2023-09-12T13:36:23;23.23;;;20.85;;
36433;SDS011;31691;51.972;5.672;2023-09-12T13:41:26;26.63;;;23.95;;
36433;SDS011;31691;51.972;5.672;2023-09-12T13:46:29;25.73;;;22.42;;
36433;SDS011;31691;51.972;5.672;2023-09-12T13:51:32;28.67;;;25.73;;
36433;SDS011;31691;51.972;5.672;2023-09-12T13:56:34;30.63;;;27.45;;
36433;SDS011;31691;51.972;5.672;2023-09-12T14:01:37;28.35;;;25.50;;
36433;SDS011;31691;51.972;5.672;2023-09-12T14:06:40;27.25;;;24.50;;
36433;SDS011;31691;51.972;5.672;2023-09-12T14:11:43;24.92;;;21.63;;
36433;SDS011;31691;51.972;5.672;2023-09-12T14:16:46;24.40;;;22.10;;
36433;SDS011;31691;51.972;5.672;2023-09-12T14:21:50;22.38;;;20.45;;
36433;SDS011;31691;51.972;5.672;2023-09-12T14:26:55;25.73;;;23.08;;
36433;SDS011;31691;51.972;5.672;2023-09-12T14:31:58;26.17;;;23.60;;
36433;SDS011;31691;51.972;5.672;2023-09-12T14:37:01;24.10;;;21.65;;
36433;SDS011;31691;51.972;5.672;2023-09-12T14:42:03;23.90;;;21.75;;
36433;SDS011;31691;51.972;5.672;2023-09-12T14:47:10;26.00;;;22.70;;
36433;SDS011;31691;51.972;5.672;2023-09-12T14:52:12;27.40;;;24.63;;
36433;SDS011;31691;51.972;5.672;2023-09-12T14:57:25;26.15;;;23.45;;
36433;SDS011;31691;51.972;5.672;2023-09-12T15:02:29;26.70;;;24.10;;
36433;SDS011;31691;51.972;5.672;2023-09-12T15:07:33;33.40;;;25.67;;
36433;SDS011;31691;51.972;5.672;2023-09-12T15:12:37;26.70;;;24.02;;
36433;SDS011;31691;51.972;5.672;2023-09-12T15:17:39;28.33;;;25.42;;
36433;SDS011;31691;51.972;5.672;2023-09-12T15:22:42;27.85;;;25.00;;
36433;SDS011;31691;51.972;5.672;2023-09-12T15:27:45;26.27;;;23.50;;
36433;SDS011;31691;51.972;5.672;2023-09-12T15:32:47;24.20;;;21.80;;
36433;SDS011;31691;51.972;5.672;2023-09-12T15:37:49;26.48;;;23.88;;
36433;SDS011;31691;51.972;5.672;2023-09-12T15:42:53;32.53;;;29.13;;
36433;SDS011;31691;51.972;5.672;2023-09-12T15:47:55;35.83;;;31.98;;
36433;SDS011;31691;51.972;5.672;2023-09-12T15:52:58;35.22;;;31.52;;
36433;SDS011;31691;51.972;5.672;2023-09-12T15:58:00;37.22;;;32.60;;
36433;SDS011;31691;51.972;5.672;2023-09-12T16:03:02;37.83;;;33.13;;
36433;SDS011;31691;51.972;5.672;2023-09-12T16:08:05;35.97;;;32.08;;
36433;SDS011;31691;51.972;5.672;2023-09-12T16:13:09;34.80;;;31.20;;
36433;SDS011;31691;51.972;5.672;2023-09-12T16:18:11;35.28;;;31.42;;
36433;SDS011;31691;51.972;5.672;2023-09-12T16:23:13;34.15;;;30.52;;
36433;SDS011;31691;51.972;5.672;2023-09-12T16:28:16;33.80;;;29.10;;
36433;SDS011;31691;51.972;5.672;2023-09-12T16:33:19;36.85;;;29.55;;
36433;SDS011;31691;51.972;5.672;2023-09-12T16:38:22;33.55;;;29.98;;
36433;SDS011;31691;51.972;5.672;2023-09-12T16:43:24;32.75;;;29.10;;
36433;SDS011;31691;51.972;5.672;2023-09-12T16:48:27;32.47;;;29.08;;
36433;SDS011;31691;51.972;5.672;2023-09-12T16:53:31;29.98;;;26.80;;
36433;SDS011;31691;51.972;5.672;2023-09-12T16:58:33;27.30;;;24.55;;
36433;SDS011;31691;51.972;5.672;2023-09-12T17:03:35;28.35;;;25.27;;
36433;SDS011;31691;51.972;5.672;2023-09-12T17:08:38;26.52;;;23.10;;
36433;SDS011;31691;51.972;5.672;2023-09-12T17:13:40;26.15;;;23.67;;
36433;SDS011;31691;51.972;5.672;2023-09-12T17:18:43;24.50;;;22.13;;
36433;SDS011;31691;51.972;5.672;2023-09-12T17:23:45;25.05;;;22.50;;
36433;SDS011;31691;51.972;5.672;2023-09-12T17:28:47;24.65;;;22.25;;
36433;SDS011;31691;51.972;5.672;2023-09-12T17:33:50;25.38;;;22.73;;
36433;SDS011;31691;51.972;5.672;2023-09-12T17:38:52;24.65;;;20.95;;
36433;SDS011;31691;51.972;5.672;2023-09-12T17:43:54;23.20;;;20.67;;
36433;SDS011;31691;51.972;5.672;2023-09-12T17:48:58;23.80;;;21.52;;
36433;SDS011;31691;51.972;5.672;2023-09-12T17:54:00;22.48;;;20.17;;
36433;SDS011;31691;51.972;5.672;2023-09-12T17:59:03;23.33;;;21.05;;
36433;SDS011;31691;51.972;5.672;2023-09-12T18:04:05;24.40;;;21.98;;
36433;SDS011;31691;51.972;5.672;2023-09-12T18:09:08;23.67;;;21.25;;
36433;SDS011;31691;51.972;5.672;2023-09-12T18:14:11;24.48;;;21.70;;
36433;SDS011;31691;51.972;5.672;2023-09-12T18:19:13;24.92;;;22.33;;
36433;SDS011;31691;51.972;5.672;2023-09-12T18:24:15;25.50;;;22.63;;
36433;SDS011;31691;51.972;5.672;2023-09-12T18:29:18;26.02;;;22.17;;
36433;SDS011;31691;51.972;5.672;2023-09-12T18:34:20;26.20;;;23.08;;
36433;SDS011;31691;51.972;5.672;2023-09-12T18:39:23;25.70;;;23.10;;
36433;SDS011;31691;51.972;5.672;2023-09-12T18:44:25;28.10;;;24.90;;
36433;SDS011;31691;51.972;5.672;2023-09-12T18:49:27;27.33;;;24.50;;
36433;SDS011;31691;51.972;5.672;2023-09-12T18:54:32;29.30;;;24.70;;
36433;SDS011;31691;51.972;5.672;2023-09-12T18:59:35;29.40;;;26.30;;
36433;SDS011;31691;51.972;5.672;2023-09-12T19:04:38;30.30;;;26.88;;
36433;SDS011;31691;51.972;5.672;2023-09-12T19:09:40;30.83;;;27.60;;
36433;SDS011;31691;51.972;5.672;2023-09-12T19:14:43;34.10;;;26.98;;
36433;SDS011;31691;51.972;5.672;2023-09-12T19:19:45;32.55;;;28.25;;
36433;SDS011;31691;51.972;5.672;2023-09-12T19:24:47;31.80;;;27.92;;
36433;SDS011;31691;51.972;5.672;2023-09-12T19:29:50;30.45;;;26.98;;
36433;SDS011;31691;51.972;5.672;2023-09-12T19:34:54;45.83;;;40.75;;
36433;SDS011;31691;51.972;5.672;2023-09-12T19:39:56;51.60;;;46.20;;
36433;SDS011;31691;51.972;5.672;2023-09-12T19:44:59;55.60;;;47.25;;
36433;SDS011;31691;51.972;5.672;2023-09-12T19:50:01;46.95;;;41.38;;
36433;SDS011;31691;51.972;5.672;2023-09-12T19:55:03;53.38;;;44.47;;
36433;SDS011;31691;51.972;5.672;2023-09-12T20:00:07;52.78;;;46.25;;
36433;SDS011;31691;51.972;5.672;2023-09-12T20:05:09;48.08;;;42.85;;
36433;SDS011;31691;51.972;5.672;2023-09-12T20:10:12;57.17;;;47.10;;
36433;SDS011;31691;51.972;5.672;2023-09-12T20:15:14;54.92;;;45.15;;
36433;SDS011;31691;51.972;5.672;2023-09-12T20:20:16;58.08;;;48.55;;
36433;SDS011;31691;51.972;5.672;2023-09-12T20:25:20;58.88;;;46.80;;
36433;SDS011;31691;51.972;5.672;2023-09-12T20:30:23;55.03;;;47.25;;
36433;SDS011;31691;51.972;5.672;2023-09-12T20:35:26;55.45;;;45.97;;
36433;SDS011;31691;51.972;5.672;2023-09-12T20:40:29;54.80;;;46.00;;
36433;SDS011;31691;51.972;5.672;2023-09-12T20:45:33;49.30;;;43.97;;
36433;SDS011;31691;51.972;5.672;2023-09-12T20:50:35;46.83;;;41.80;;
36433;SDS011;31691;51.972;5.672;2023-09-12T20:55:38;52.58;;;43.13;;
36433;SDS011;31691;51.972;5.672;2023-09-12T21:00:40;48.53;;;43.03;;
36433;SDS011;31691;51.972;5.672;2023-09-12T21:05:45;47.25;;;41.85;;
36433;SDS011;31691;51.972;5.672;2023-09-12T21:10:47;55.42;;;44.30;;
36433;SDS011;31691;51.972;5.672;2023-09-12T21:15:49;52.78;;;40.95;;
36433;SDS011;31691;51.972;5.672;2023-09-12T21:20:53;47.30;;;42.25;;
36433;SDS011;31691;51.972;5.672;2023-09-12T21:25:55;48.75;;;42.28;;
36433;SDS011;31691;51.972;5.672;2023-09-12T21:30:58;45.28;;;40.33;;
36433;SDS011;31691;51.972;5.672;2023-09-12T21:36:01;45.72;;;40.88;;
36433;SDS011;31691;51.972;5.672;2023-09-12T21:41:04;43.97;;;39.47;;
36433;SDS011;31691;51.972;5.672;2023-09-12T21:46:06;46.80;;;40.65;;
36433;SDS011;31691;51.972;5.672;2023-09-12T21:51:09;49.17;;;40.70;;
36433;SDS011;31691;51.972;5.672;2023-09-12T21:56:12;42.35;;;38.05;;
36433;SDS011;31691;51.972;5.672;2023-09-12T22:01:15;39.85;;;36.03;;
36433;SDS011;31691;51.972;5.672;2023-09-12T22:06:17;42.05;;;37.88;;
36433;SDS011;31691;51.972;5.672;2023-09-12T22:11:20;40.47;;;36.63;;
36433;SDS011;31691;51.972;5.672;2023-09-12T22:16:22;43.38;;;38.90;;
36433;SDS011;31691;51.972;5.672;2023-09-12T22:21:24;47.40;;;42.45;;
36433;SDS011;31691;51.972;5.672;2023-09-12T22:26:27;50.38;;;44.80;;
36433;SDS011;31691;51.972;5.672;2023-09-12T22:31:29;51.72;;;43.67;;
36433;SDS011;31691;51.972;5.672;2023-09-12T22:36:33;50.03;;;44.67;;
36433;SDS011;31691;51.972;5.672;2023-09-12T22:41:35;59.40;;;49.97;;
36433;SDS011;31691;51.972;5.672;2023-09-12T22:46:37;68.00;;;57.13;;
36433;SDS011;31691;51.972;5.672;2023-09-12T22:51:40;67.05;;;54.75;;
36433;SDS011;31691;51.972;5.672;2023-09-12T22:56:42;69.22;;;55.70;;
36433;SDS011;31691;51.972;5.672;2023-09-12T23:01:44;79.38;;;58.63;;
36433;SDS011;31691;51.972;5.672;2023-09-12T23:06:47;61.38;;;50.30;;
36433;SDS011;31691;51.972;5.672;2023-09-12T23:11:49;59.92;;;52.85;;
36433;SDS011;31691;51.972;5.672;2023-09-12T23:16:51;56.15;;;50.25;;
36433;SDS011;31691;51.972;5.672;2023-09-12T23:21:54;50.70;;;44.55;;
36433;SDS011;31691;51.972;5.672;2023-09-12T23:26:57;52.25;;;46.85;;
36433;SDS011;31691;51.972;5.672;2023-09-12T23:31:59;54.97;;;47.95;;
36433;SDS011;31691;51.972;5.672;2023-09-12T23:37:01;71.05;;;57.58;;
36433;SDS011;31691;51.972;5.672;2023-09-12T23:42:04;58.92;;;49.33;;
36433;SDS011;31691;51.972;5.672;2023-09-12T23:47:06;71.10;;;57.88;;
36433;SDS011;31691;51.972;5.672;2023-09-12T23:52:09;69.05;;;54.75;;
36433;SDS011;31691;51.972;5.672;2023-09-12T23:57:12;72.93;;;57.60;;
